sensor_id;sensor_type;location;lat;lon;timestamp;pressure;altitude;pressure_sealevel;temperature
41593;BMP180;28026;48.562;14.440;2023-06-14T00:01:26;93450.00;;;20.70
41593;BMP180;28026;48.562;14.440;2023-06-14T00:03:57;93447.00;;;20.60
41593;BMP180;28026;48.562;14.440;2023-06-14T00:06:29;93446.00;;;20.60
41593;BMP180;28026;48.562;14.440;2023-06-14T00:09:01;93456.00;;;20.50
41593;BMP180;28026;48.562;14.440;2023-06-14T00:11:31;93454.00;;;20.50
41593;BMP180;28026;48.562;14.440;2023-06-14T00:14:03;93454.00;;;20.40
41593;BMP180;28026;48.562;14.440;2023-06-14T00:16:34;93454.00;;;20.30
41593;BMP180;28026;48.562;14.440;2023-06-14T00:19:05;93451.00;;;20.30
41593;BMP180;28026;48.562;14.440;2023-06-14T00:21:38;93450.00;;;20.20
41593;BMP180;28026;48.562;14.440;2023-06-14T00:24:09;93453.00;;;20.20
41593;BMP180;28026;48.562;14.440;2023-06-14T00:26:40;93455.00;;;20.10
41593;BMP180;28026;48.562;14.440;2023-06-14T00:29:10;93450.00;;;20.10
41593;BMP180;28026;48.562;14.440;2023-06-14T00:31:41;93445.00;;;20.10
41593;BMP180;28026;48.562;14.440;2023-06-14T00:34:12;93443.00;;;20.10
41593;BMP180;28026;48.562;14.440;2023-06-14T00:36:43;93446.00;;;20.10
41593;BMP180;28026;48.562;14.440;2023-06-14T00:39:14;93444.00;;;20.10
41593;BMP180;28026;48.562;14.440;2023-06-14T00:41:45;93449.00;;;20.00
41593;BMP180;28026;48.562;14.440;2023-06-14T00:44:16;93445.00;;;20.00
41593;BMP180;28026;48.562;14.440;2023-06-14T00:46:48;93440.00;;;19.90
41593;BMP180;28026;48.562;14.440;2023-06-14T00:49:19;93438.00;;;19.90
41593;BMP180;28026;48.562;14.440;2023-06-14T00:51:50;93443.00;;;19.90
41593;BMP180;28026;48.562;14.440;2023-06-14T00:54:21;93442.00;;;19.90
41593;BMP180;28026;48.562;14.440;2023-06-14T00:56:52;93437.00;;;19.80
41593;BMP180;28026;48.562;14.440;2023-06-14T00:59:24;93438.00;;;19.80
41593;BMP180;28026;48.562;14.440;2023-06-14T01:01:55;93435.00;;;19.80
41593;BMP180;28026;48.562;14.440;2023-06-14T01:04:26;93441.00;;;19.80
41593;BMP180;28026;48.562;14.440;2023-06-14T01:14:03;93437.00;;;19.60
41593;BMP180;28026;48.562;14.440;2023-06-14T01:16:34;93435.00;;;19.50
41593;BMP180;28026;48.562;14.440;2023-06-14T01:19:11;93436.00;;;19.50
41593;BMP180;28026;48.562;14.440;2023-06-14T01:21:44;93436.00;;;19.50
41593;BMP180;28026;48.562;14.440;2023-06-14T01:24:15;93439.00;;;19.40
41593;BMP180;28026;48.562;14.440;2023-06-14T01:26:46;93434.00;;;19.40
41593;BMP180;28026;48.562;14.440;2023-06-14T01:29:23;93432.00;;;19.40
41593;BMP180;28026;48.562;14.440;2023-06-14T01:31:59;93437.00;;;19.30
41593;BMP180;28026;48.562;14.440;2023-06-14T01:34:31;93431.00;;;19.30
41593;BMP180;28026;48.562;14.440;2023-06-14T01:37:03;93422.00;;;19.20
41593;BMP180;28026;48.562;14.440;2023-06-14T01:39:34;93424.00;;;19.20
41593;BMP180;28026;48.562;14.440;2023-06-14T01:42:06;93430.00;;;19.20
41593;BMP180;28026;48.562;14.440;2023-06-14T01:44:38;93436.00;;;19.10
41593;BMP180;28026;48.562;14.440;2023-06-14T01:47:11;93437.00;;;19.10
41593;BMP180;28026;48.562;14.440;2023-06-14T01:49:42;93436.00;;;19.10
41593;BMP180;28026;48.562;14.440;2023-06-14T01:52:13;93434.00;;;19.10
41593;BMP180;28026;48.562;14.440;2023-06-14T01:54:44;93435.00;;;19.10
41593;BMP180;28026;48.562;14.440;2023-06-14T01:57:15;93432.00;;;19.00
41593;BMP180;28026;48.562;14.440;2023-06-14T01:59:46;93426.00;;;19.00
41593;BMP180;28026;48.562;14.440;2023-06-14T02:02:19;93426.00;;;19.00
41593;BMP180;28026;48.562;14.440;2023-06-14T02:04:49;93427.00;;;19.00
41593;BMP180;28026;48.562;14.440;2023-06-14T02:07:20;93421.00;;;19.00
41593;BMP180;28026;48.562;14.440;2023-06-14T02:09:51;93418.00;;;18.90
41593;BMP180;28026;48.562;14.440;2023-06-14T02:12:22;93425.00;;;18.90
41593;BMP180;28026;48.562;14.440;2023-06-14T02:14:53;93432.00;;;18.90
41593;BMP180;28026;48.562;14.440;2023-06-14T02:17:24;93432.00;;;18.90
41593;BMP180;28026;48.562;14.440;2023-06-14T02:19:55;93427.00;;;18.90
41593;BMP180;28026;48.562;14.440;2023-06-14T02:22:27;93424.00;;;18.90
41593;BMP180;28026;48.562;14.440;2023-06-14T02:24:58;93424.00;;;18.90
41593;BMP180;28026;48.562;14.440;2023-06-14T02:27:29;93430.00;;;18.90
41593;BMP180;28026;48.562;14.440;2023-06-14T02:30:00;93428.00;;;18.80
41593;BMP180;28026;48.562;14.440;2023-06-14T02:32:32;93430.00;;;18.80
41593;BMP180;28026;48.562;14.440;2023-06-14T02:35:07;93430.00;;;18.90
41593;BMP180;28026;48.562;14.440;2023-06-14T02:37:38;93433.00;;;18.80
41593;BMP180;28026;48.562;14.440;2023-06-14T02:40:09;93431.00;;;18.80
41593;BMP180;28026;48.562;14.440;2023-06-14T02:42:40;93436.00;;;18.80
41593;BMP180;28026;48.562;14.440;2023-06-14T02:45:11;93439.00;;;18.80
41593;BMP180;28026;48.562;14.440;2023-06-14T02:47:42;93435.00;;;18.70
41593;BMP180;28026;48.562;14.440;2023-06-14T02:50:13;93432.00;;;18.70
41593;BMP180;28026;48.562;14.440;2023-06-14T02:52:44;93434.00;;;18.60
41593;BMP180;28026;48.562;14.440;2023-06-14T02:55:16;93434.00;;;18.60
41593;BMP180;28026;48.562;14.440;2023-06-14T02:57:47;93439.00;;;18.60
41593;BMP180;28026;48.562;14.440;2023-06-14T03:00:18;93429.00;;;18.60
41593;BMP180;28026;48.562;14.440;2023-06-14T03:02:50;93428.00;;;18.60
41593;BMP180;28026;48.562;14.440;2023-06-14T03:05:22;93432.00;;;18.60
41593;BMP180;28026;48.562;14.440;2023-06-14T03:07:52;93432.00;;;18.50
41593;BMP180;28026;48.562;14.440;2023-06-14T03:10:24;93427.00;;;18.50
41593;BMP180;28026;48.562;14.440;2023-06-14T03:12:56;93422.00;;;18.50
41593;BMP180;28026;48.562;14.440;2023-06-14T03:15:27;93417.00;;;18.50
41593;BMP180;28026;48.562;14.440;2023-06-14T03:17:59;93426.00;;;18.50
41593;BMP180;28026;48.562;14.440;2023-06-14T03:20:30;93414.00;;;18.50
41593;BMP180;28026;48.562;14.440;2023-06-14T03:23:03;93418.00;;;18.50
41593;BMP180;28026;48.562;14.440;2023-06-14T03:25:35;93428.00;;;18.50
41593;BMP180;28026;48.562;14.440;2023-06-14T03:28:08;93418.00;;;18.50
41593;BMP180;28026;48.562;14.440;2023-06-14T03:30:39;93422.00;;;18.40
41593;BMP180;28026;48.562;14.440;2023-06-14T03:33:10;93425.00;;;18.40
41593;BMP180;28026;48.562;14.440;2023-06-14T03:35:42;93423.00;;;18.40
41593;BMP180;28026;48.562;14.440;2023-06-14T03:38:14;93423.00;;;18.40
41593;BMP180;28026;48.562;14.440;2023-06-14T03:40:45;93437.00;;;18.30
41593;BMP180;28026;48.562;14.440;2023-06-14T03:43:17;93437.00;;;18.30
41593;BMP180;28026;48.562;14.440;2023-06-14T03:45:48;93435.00;;;18.30
41593;BMP180;28026;48.562;14.440;2023-06-14T03:48:19;93436.00;;;18.30
41593;BMP180;28026;48.562;14.440;2023-06-14T03:50:49;93447.00;;;18.30
41593;BMP180;28026;48.562;14.440;2023-06-14T03:53:20;93447.00;;;18.30
41593;BMP180;28026;48.562;14.440;2023-06-14T03:55:53;93450.00;;;18.30
41593;BMP180;28026;48.562;14.440;2023-06-14T03:58:24;93448.00;;;18.30
41593;BMP180;28026;48.562;14.440;2023-06-14T04:00:55;93456.00;;;18.30
41593;BMP180;28026;48.562;14.440;2023-06-14T04:03:26;93458.00;;;18.30
41593;BMP180;28026;48.562;14.440;2023-06-14T04:06:00;93460.00;;;18.30
41593;BMP180;28026;48.562;14.440;2023-06-14T04:08:31;93466.00;;;18.30
41593;BMP180;28026;48.562;14.440;2023-06-14T04:11:02;93460.00;;;18.40
41593;BMP180;28026;48.562;14.440;2023-06-14T04:13:33;93460.00;;;18.40
41593;BMP180;28026;48.562;14.440;2023-06-14T04:16:05;93462.00;;;18.40
41593;BMP180;28026;48.562;14.440;2023-06-14T04:18:36;93464.00;;;18.50
41593;BMP180;28026;48.562;14.440;2023-06-14T04:21:07;93467.00;;;18.50
41593;BMP180;28026;48.562;14.440;2023-06-14T04:23:38;93465.00;;;18.50
41593;BMP180;28026;48.562;14.440;2023-06-14T04:26:10;93473.00;;;18.60
41593;BMP180;28026;48.562;14.440;2023-06-14T04:28:41;93475.00;;;18.60
41593;BMP180;28026;48.562;14.440;2023-06-14T04:31:12;93481.00;;;18.70
41593;BMP180;28026;48.562;14.440;2023-06-14T04:33:44;93481.00;;;18.80
41593;BMP180;28026;48.562;14.440;2023-06-14T04:36:16;93492.00;;;18.80
41593;BMP180;28026;48.562;14.440;2023-06-14T04:38:48;93490.00;;;18.90
41593;BMP180;28026;48.562;14.440;2023-06-14T04:41:22;93493.00;;;19.00
41593;BMP180;28026;48.562;14.440;2023-06-14T04:44:00;93492.00;;;19.10
41593;BMP180;28026;48.562;14.440;2023-06-14T04:46:32;93488.00;;;19.20
41593;BMP180;28026;48.562;14.440;2023-06-14T04:49:03;93490.00;;;19.20
41593;BMP180;28026;48.562;14.440;2023-06-14T04:51:33;93486.00;;;19.30
41593;BMP180;28026;48.562;14.440;2023-06-14T04:54:05;93488.00;;;19.30
41593;BMP180;28026;48.562;14.440;2023-06-14T04:56:43;93493.00;;;19.40
41593;BMP180;28026;48.562;14.440;2023-06-14T04:59:15;93490.00;;;19.50
41593;BMP180;28026;48.562;14.440;2023-06-14T05:01:47;93489.00;;;19.60
41593;BMP180;28026;48.562;14.440;2023-06-14T05:04:19;93492.00;;;19.70
41593;BMP180;28026;48.562;14.440;2023-06-14T05:06:52;93492.00;;;19.70
41593;BMP180;28026;48.562;14.440;2023-06-14T05:09:25;93497.00;;;19.80
41593;BMP180;28026;48.562;14.440;2023-06-14T05:11:55;93490.00;;;19.90
41593;BMP180;28026;48.562;14.440;2023-06-14T05:14:29;93501.00;;;20.00
41593;BMP180;28026;48.562;14.440;2023-06-14T05:17:00;93496.00;;;20.20
41593;BMP180;28026;48.562;14.440;2023-06-14T05:19:31;93496.00;;;20.30
41593;BMP180;28026;48.562;14.440;2023-06-14T05:22:02;93490.00;;;20.40
41593;BMP180;28026;48.562;14.440;2023-06-14T05:24:33;93495.00;;;20.50
41593;BMP180;28026;48.562;14.440;2023-06-14T05:27:04;93498.00;;;20.60
41593;BMP180;28026;48.562;14.440;2023-06-14T05:29:36;93510.00;;;20.70
41593;BMP180;28026;48.562;14.440;2023-06-14T05:32:07;93513.00;;;20.80
41593;BMP180;28026;48.562;14.440;2023-06-14T05:34:38;93507.00;;;20.90
41593;BMP180;28026;48.562;14.440;2023-06-14T05:37:09;93510.00;;;21.00
41593;BMP180;28026;48.562;14.440;2023-06-14T05:39:40;93511.00;;;21.10
41593;BMP180;28026;48.562;14.440;2023-06-14T05:42:11;93514.00;;;21.20
41593;BMP180;28026;48.562;14.440;2023-06-14T05:44:42;93516.00;;;21.40
41593;BMP180;28026;48.562;14.440;2023-06-14T05:47:13;93512.00;;;21.60
41593;BMP180;28026;48.562;14.440;2023-06-14T05:49:44;93516.00;;;21.70
41593;BMP180;28026;48.562;14.440;2023-06-14T05:52:14;93511.00;;;21.80
41593;BMP180;28026;48.562;14.440;2023-06-14T05:54:46;93523.00;;;21.80
41593;BMP180;28026;48.562;14.440;2023-06-14T05:57:17;93522.00;;;21.90
41593;BMP180;28026;48.562;14.440;2023-06-14T05:59:48;93524.00;;;22.00
41593;BMP180;28026;48.562;14.440;2023-06-14T06:02:19;93519.00;;;22.10
41593;BMP180;28026;48.562;14.440;2023-06-14T06:04:50;93519.00;;;22.20
41593;BMP180;28026;48.562;14.440;2023-06-14T06:07:21;93519.00;;;22.30
41593;BMP180;28026;48.562;14.440;2023-06-14T06:09:52;93528.00;;;22.50
41593;BMP180;28026;48.562;14.440;2023-06-14T06:12:23;93529.00;;;22.60
41593;BMP180;28026;48.562;14.440;2023-06-14T06:14:54;93534.00;;;22.70
41593;BMP180;28026;48.562;14.440;2023-06-14T06:17:26;93525.00;;;22.80
41593;BMP180;28026;48.562;14.440;2023-06-14T06:19:57;93527.00;;;22.80
41593;BMP180;28026;48.562;14.440;2023-06-14T06:22:28;93525.00;;;23.00
41593;BMP180;28026;48.562;14.440;2023-06-14T06:24:59;93535.00;;;23.10
41593;BMP180;28026;48.562;14.440;2023-06-14T06:27:30;93535.00;;;23.20
41593;BMP180;28026;48.562;14.440;2023-06-14T06:30:01;93537.00;;;23.30
41593;BMP180;28026;48.562;14.440;2023-06-14T06:32:31;93540.00;;;23.40
41593;BMP180;28026;48.562;14.440;2023-06-14T06:35:03;93543.00;;;23.50
41593;BMP180;28026;48.562;14.440;2023-06-14T06:37:37;93538.00;;;23.60
41593;BMP180;28026;48.562;14.440;2023-06-14T06:40:08;93545.00;;;23.70
41593;BMP180;28026;48.562;14.440;2023-06-14T06:42:41;93548.00;;;23.90
41593;BMP180;28026;48.562;14.440;2023-06-14T06:45:12;93548.00;;;24.10
41593;BMP180;28026;48.562;14.440;2023-06-14T06:47:43;93547.00;;;24.30
41593;BMP180;28026;48.562;14.440;2023-06-14T06:50:14;93541.00;;;24.40
41593;BMP180;28026;48.562;14.440;2023-06-14T06:52:45;93552.00;;;24.60
41593;BMP180;28026;48.562;14.440;2023-06-14T06:55:15;93551.00;;;24.80
41593;BMP180;28026;48.562;14.440;2023-06-14T06:57:46;93550.00;;;25.00
41593;BMP180;28026;48.562;14.440;2023-06-14T07:00:18;93564.00;;;25.10
41593;BMP180;28026;48.562;14.440;2023-06-14T07:02:49;93565.00;;;25.00
41593;BMP180;28026;48.562;14.440;2023-06-14T07:05:21;93561.00;;;25.20
41593;BMP180;28026;48.562;14.440;2023-06-14T07:07:52;93562.00;;;25.40
41593;BMP180;28026;48.562;14.440;2023-06-14T07:10:23;93557.00;;;25.60
41593;BMP180;28026;48.562;14.440;2023-06-14T07:12:54;93563.00;;;25.80
41593;BMP180;28026;48.562;14.440;2023-06-14T07:15:25;93557.00;;;26.00
41593;BMP180;28026;48.562;14.440;2023-06-14T07:17:57;93556.00;;;26.10
41593;BMP180;28026;48.562;14.440;2023-06-14T07:20:30;93563.00;;;26.20
41593;BMP180;28026;48.562;14.440;2023-06-14T07:23:01;93569.00;;;26.30
41593;BMP180;28026;48.562;14.440;2023-06-14T07:25:32;93570.00;;;26.40
41593;BMP180;28026;48.562;14.440;2023-06-14T07:28:03;93567.00;;;26.60
41593;BMP180;28026;48.562;14.440;2023-06-14T07:30:35;93567.00;;;26.70
41593;BMP180;28026;48.562;14.440;2023-06-14T07:33:06;93571.00;;;26.80
41593;BMP180;28026;48.562;14.440;2023-06-14T07:35:38;93568.00;;;26.90
41593;BMP180;28026;48.562;14.440;2023-06-14T07:38:09;93573.00;;;27.10
41593;BMP180;28026;48.562;14.440;2023-06-14T07:40:40;93576.00;;;27.10
41593;BMP180;28026;48.562;14.440;2023-06-14T07:43:11;93573.00;;;27.20
41593;BMP180;28026;48.562;14.440;2023-06-14T07:45:42;93573.00;;;27.40
41593;BMP180;28026;48.562;14.440;2023-06-14T07:48:13;93577.00;;;27.40
41593;BMP180;28026;48.562;14.440;2023-06-14T07:50:44;93575.00;;;27.50
41593;BMP180;28026;48.562;14.440;2023-06-14T07:53:15;93576.00;;;27.60
41593;BMP180;28026;48.562;14.440;2023-06-14T07:55:46;93582.00;;;27.70
41593;BMP180;28026;48.562;14.440;2023-06-14T07:58:18;93581.00;;;27.80
41593;BMP180;28026;48.562;14.440;2023-06-14T08:00:48;93584.00;;;28.00
41593;BMP180;28026;48.562;14.440;2023-06-14T08:03:20;93588.00;;;28.10
41593;BMP180;28026;48.562;14.440;2023-06-14T08:05:51;93591.00;;;28.20
41593;BMP180;28026;48.562;14.440;2023-06-14T08:08:22;93596.00;;;28.30
41593;BMP180;28026;48.562;14.440;2023-06-14T08:10:53;93596.00;;;28.30
41593;BMP180;28026;48.562;14.440;2023-06-14T08:13:24;93596.00;;;28.30
41593;BMP180;28026;48.562;14.440;2023-06-14T08:15:54;93598.00;;;28.40
41593;BMP180;28026;48.562;14.440;2023-06-14T08:18:27;93596.00;;;28.50
41593;BMP180;28026;48.562;14.440;2023-06-14T08:20:58;93593.00;;;28.40
41593;BMP180;28026;48.562;14.440;2023-06-14T08:23:29;93593.00;;;28.60
41593;BMP180;28026;48.562;14.440;2023-06-14T08:26:01;93598.00;;;28.80
41593;BMP180;28026;48.562;14.440;2023-06-14T08:28:34;93600.00;;;28.90
41593;BMP180;28026;48.562;14.440;2023-06-14T08:31:05;93603.00;;;29.00
41593;BMP180;28026;48.562;14.440;2023-06-14T08:33:36;93598.00;;;29.00
41593;BMP180;28026;48.562;14.440;2023-06-14T08:36:07;93598.00;;;29.20
41593;BMP180;28026;48.562;14.440;2023-06-14T08:38:39;93595.00;;;29.40
41593;BMP180;28026;48.562;14.440;2023-06-14T08:41:12;93605.00;;;29.50
41593;BMP180;28026;48.562;14.440;2023-06-14T08:43:52;93606.00;;;29.70
41593;BMP180;28026;48.562;14.440;2023-06-14T08:46:25;93605.00;;;29.50
41593;BMP180;28026;48.562;14.440;2023-06-14T08:48:58;93607.00;;;29.60
41593;BMP180;28026;48.562;14.440;2023-06-14T08:51:31;93604.00;;;29.80
41593;BMP180;28026;48.562;14.440;2023-06-14T08:54:07;93606.00;;;29.80
41593;BMP180;28026;48.562;14.440;2023-06-14T08:56:39;93610.00;;;30.00
41593;BMP180;28026;48.562;14.440;2023-06-14T08:59:12;93604.00;;;30.10
41593;BMP180;28026;48.562;14.440;2023-06-14T09:01:44;93606.00;;;30.00
41593;BMP180;28026;48.562;14.440;2023-06-14T09:04:15;93604.00;;;29.80
41593;BMP180;28026;48.562;14.440;2023-06-14T09:06:46;93610.00;;;29.60
41593;BMP180;28026;48.562;14.440;2023-06-14T09:09:24;93608.00;;;29.40
41593;BMP180;28026;48.562;14.440;2023-06-14T09:11:56;93613.00;;;29.20
41593;BMP180;28026;48.562;14.440;2023-06-14T09:14:27;93612.00;;;28.90
41593;BMP180;28026;48.562;14.440;2023-06-14T09:16:58;93615.00;;;28.70
41593;BMP180;28026;48.562;14.440;2023-06-14T09:19:28;93620.00;;;28.50
41593;BMP180;28026;48.562;14.440;2023-06-14T09:21:59;93620.00;;;28.30
41593;BMP180;28026;48.562;14.440;2023-06-14T09:24:30;93624.00;;;28.10
41593;BMP180;28026;48.562;14.440;2023-06-14T09:27:01;93624.00;;;27.90
41593;BMP180;28026;48.562;14.440;2023-06-14T09:29:33;93620.00;;;27.90
41593;BMP180;28026;48.562;14.440;2023-06-14T09:32:05;93620.00;;;27.80
41593;BMP180;28026;48.562;14.440;2023-06-14T09:34:37;93625.00;;;27.70
41593;BMP180;28026;48.562;14.440;2023-06-14T09:37:08;93623.00;;;27.60
41593;BMP180;28026;48.562;14.440;2023-06-14T09:39:51;93628.00;;;27.50
41593;BMP180;28026;48.562;14.440;2023-06-14T09:42:22;93617.00;;;27.50
41593;BMP180;28026;48.562;14.440;2023-06-14T09:44:57;93630.00;;;27.50
41593;BMP180;28026;48.562;14.440;2023-06-14T09:47:27;93624.00;;;27.60
41593;BMP180;28026;48.562;14.440;2023-06-14T09:49:58;93622.00;;;27.60
41593;BMP180;28026;48.562;14.440;2023-06-14T09:52:31;93628.00;;;27.50
41593;BMP180;28026;48.562;14.440;2023-06-14T09:55:12;93628.00;;;27.40
41593;BMP180;28026;48.562;14.440;2023-06-14T09:57:47;93627.00;;;27.40
41593;BMP180;28026;48.562;14.440;2023-06-14T10:00:21;93623.00;;;27.40
41593;BMP180;28026;48.562;14.440;2023-06-14T10:02:59;93622.00;;;27.40
41593;BMP180;28026;48.562;14.440;2023-06-14T10:05:45;93627.00;;;27.40
41593;BMP180;28026;48.562;14.440;2023-06-14T10:08:25;93626.00;;;27.40
41593;BMP180;28026;48.562;14.440;2023-06-14T10:11:00;93626.00;;;27.40
41593;BMP180;28026;48.562;14.440;2023-06-14T10:13:33;93631.00;;;27.40
41593;BMP180;28026;48.562;14.440;2023-06-14T10:16:28;93632.00;;;27.40
41593;BMP180;28026;48.562;14.440;2023-06-14T10:19:19;93626.00;;;27.60
41593;BMP180;28026;48.562;14.440;2023-06-14T10:22:06;93632.00;;;27.60
41593;BMP180;28026;48.562;14.440;2023-06-14T10:24:45;93626.00;;;27.60
41593;BMP180;28026;48.562;14.440;2023-06-14T10:27:17;93629.00;;;27.60
41593;BMP180;28026;48.562;14.440;2023-06-14T10:32:28;93627.00;;;27.40
41593;BMP180;28026;48.562;14.440;2023-06-14T10:35:05;93637.00;;;27.40
41593;BMP180;28026;48.562;14.440;2023-06-14T10:37:39;93634.00;;;27.40
41593;BMP180;28026;48.562;14.440;2023-06-14T10:40:30;93625.00;;;27.50
41593;BMP180;28026;48.562;14.440;2023-06-14T10:43:22;93637.00;;;27.70
41593;BMP180;28026;48.562;14.440;2023-06-14T10:46:13;93630.00;;;28.10
41593;BMP180;28026;48.562;14.440;2023-06-14T10:48:46;93626.00;;;28.70
41593;BMP180;28026;48.562;14.440;2023-06-14T10:51:20;93627.00;;;29.30
41593;BMP180;28026;48.562;14.440;2023-06-14T10:53:51;93620.00;;;29.40
41593;BMP180;28026;48.562;14.440;2023-06-14T10:56:33;93625.00;;;29.60
41593;BMP180;28026;48.562;14.440;2023-06-14T10:59:05;93625.00;;;30.00
41593;BMP180;28026;48.562;14.440;2023-06-14T11:01:40;93625.00;;;30.40
41593;BMP180;28026;48.562;14.440;2023-06-14T11:04:21;93626.00;;;30.60
41593;BMP180;28026;48.562;14.440;2023-06-14T11:07:05;93618.00;;;30.80
41593;BMP180;28026;48.562;14.440;2023-06-14T11:12:54;93612.00;;;30.60
41593;BMP180;28026;48.562;14.440;2023-06-14T11:15:33;93619.00;;;30.80
41593;BMP180;28026;48.562;14.440;2023-06-14T11:18:08;93612.00;;;30.70
41593;BMP180;28026;48.562;14.440;2023-06-14T11:20:42;93618.00;;;30.50
41593;BMP180;28026;48.562;14.440;2023-06-14T11:23:13;93626.00;;;30.30
41593;BMP180;28026;48.562;14.440;2023-06-14T11:25:49;93612.00;;;30.00
41593;BMP180;28026;48.562;14.440;2023-06-14T11:28:21;93619.00;;;29.80
41593;BMP180;28026;48.562;14.440;2023-06-14T11:31:04;93619.00;;;29.90
41593;BMP180;28026;48.562;14.440;2023-06-14T11:33:35;93621.00;;;30.00
41593;BMP180;28026;48.562;14.440;2023-06-14T11:36:06;93624.00;;;29.90
41593;BMP180;28026;48.562;14.440;2023-06-14T11:38:39;93616.00;;;29.80
41593;BMP180;28026;48.562;14.440;2023-06-14T11:41:10;93614.00;;;29.80
41593;BMP180;28026;48.562;14.440;2023-06-14T11:43:40;93607.00;;;29.80
41593;BMP180;28026;48.562;14.440;2023-06-14T11:46:15;93600.00;;;29.90
41593;BMP180;28026;48.562;14.440;2023-06-14T11:48:47;93605.00;;;30.20
41593;BMP180;28026;48.562;14.440;2023-06-14T11:51:19;93595.00;;;30.60
41593;BMP180;28026;48.562;14.440;2023-06-14T11:53:51;93597.00;;;30.80
41593;BMP180;28026;48.562;14.440;2023-06-14T11:56:22;93592.00;;;30.80
41593;BMP180;28026;48.562;14.440;2023-06-14T11:58:53;93599.00;;;30.50
41593;BMP180;28026;48.562;14.440;2023-06-14T12:01:29;93606.00;;;30.20
41593;BMP180;28026;48.562;14.440;2023-06-14T12:04:01;93603.00;;;30.00
41593;BMP180;28026;48.562;14.440;2023-06-14T12:06:34;93597.00;;;29.80
41593;BMP180;28026;48.562;14.440;2023-06-14T12:09:08;93589.00;;;29.60
41593;BMP180;28026;48.562;14.440;2023-06-14T12:11:45;93589.00;;;29.40
41593;BMP180;28026;48.562;14.440;2023-06-14T12:14:16;93592.00;;;29.30
41593;BMP180;28026;48.562;14.440;2023-06-14T12:16:47;93588.00;;;29.50
41593;BMP180;28026;48.562;14.440;2023-06-14T12:19:18;93588.00;;;30.00
41593;BMP180;28026;48.562;14.440;2023-06-14T12:21:49;93597.00;;;30.20
41593;BMP180;28026;48.562;14.440;2023-06-14T12:24:21;93603.00;;;30.40
41593;BMP180;28026;48.562;14.440;2023-06-14T12:26:58;93602.00;;;30.50
41593;BMP180;28026;48.562;14.440;2023-06-14T12:29:31;93604.00;;;30.80
41593;BMP180;28026;48.562;14.440;2023-06-14T12:32:02;93600.00;;;31.10
41593;BMP180;28026;48.562;14.440;2023-06-14T12:34:33;93596.00;;;31.40
41593;BMP180;28026;48.562;14.440;2023-06-14T12:37:04;93598.00;;;31.80
41593;BMP180;28026;48.562;14.440;2023-06-14T12:39:37;93599.00;;;32.10
41593;BMP180;28026;48.562;14.440;2023-06-14T12:42:10;93592.00;;;32.10
41593;BMP180;28026;48.562;14.440;2023-06-14T12:44:41;93601.00;;;31.70
41593;BMP180;28026;48.562;14.440;2023-06-14T12:47:14;93601.00;;;31.60
41593;BMP180;28026;48.562;14.440;2023-06-14T12:49:45;93597.00;;;31.80
41593;BMP180;28026;48.562;14.440;2023-06-14T12:52:16;93604.00;;;32.10
41593;BMP180;28026;48.562;14.440;2023-06-14T12:54:46;93612.00;;;32.30
41593;BMP180;28026;48.562;14.440;2023-06-14T12:57:17;93604.00;;;32.60
41593;BMP180;28026;48.562;14.440;2023-06-14T12:59:48;93613.00;;;32.70
41593;BMP180;28026;48.562;14.440;2023-06-14T13:02:20;93613.00;;;33.00
41593;BMP180;28026;48.562;14.440;2023-06-14T13:04:54;93618.00;;;33.20
41593;BMP180;28026;48.562;14.440;2023-06-14T13:07:25;93611.00;;;33.40
41593;BMP180;28026;48.562;14.440;2023-06-14T13:09:56;93610.00;;;33.50
41593;BMP180;28026;48.562;14.440;2023-06-14T13:12:27;93618.00;;;33.60
41593;BMP180;28026;48.562;14.440;2023-06-14T13:14:58;93604.00;;;33.80
41593;BMP180;28026;48.562;14.440;2023-06-14T13:17:29;93604.00;;;33.90
41593;BMP180;28026;48.562;14.440;2023-06-14T13:20:00;93610.00;;;34.10
41593;BMP180;28026;48.562;14.440;2023-06-14T13:22:31;93610.00;;;33.90
41593;BMP180;28026;48.562;14.440;2023-06-14T13:25:03;93612.00;;;33.70
41593;BMP180;28026;48.562;14.440;2023-06-14T13:27:34;93611.00;;;33.60
41593;BMP180;28026;48.562;14.440;2023-06-14T13:30:06;93611.00;;;33.60
41593;BMP180;28026;48.562;14.440;2023-06-14T13:32:37;93621.00;;;33.30
41593;BMP180;28026;48.562;14.440;2023-06-14T13:35:08;93608.00;;;33.00
41593;BMP180;28026;48.562;14.440;2023-06-14T13:37:39;93618.00;;;32.90
41593;BMP180;28026;48.562;14.440;2023-06-14T13:40:11;93610.00;;;33.10
41593;BMP180;28026;48.562;14.440;2023-06-14T13:42:42;93603.00;;;33.30
41593;BMP180;28026;48.562;14.440;2023-06-14T13:45:14;93602.00;;;33.60
41593;BMP180;28026;48.562;14.440;2023-06-14T13:47:45;93599.00;;;33.90
41593;BMP180;28026;48.562;14.440;2023-06-14T13:50:19;93595.00;;;34.10
41593;BMP180;28026;48.562;14.440;2023-06-14T13:52:50;93597.00;;;34.20
41593;BMP180;28026;48.562;14.440;2023-06-14T13:55:21;93596.00;;;34.30
41593;BMP180;28026;48.562;14.440;2023-06-14T13:57:52;93592.00;;;34.40
41593;BMP180;28026;48.562;14.440;2023-06-14T14:00:23;93593.00;;;34.40
41593;BMP180;28026;48.562;14.440;2023-06-14T14:02:54;93591.00;;;34.20
41593;BMP180;28026;48.562;14.440;2023-06-14T14:05:25;93594.00;;;34.10
41593;BMP180;28026;48.562;14.440;2023-06-14T14:08:00;93600.00;;;33.90
41593;BMP180;28026;48.562;14.440;2023-06-14T14:10:30;93600.00;;;33.60
41593;BMP180;28026;48.562;14.440;2023-06-14T14:13:01;93594.00;;;33.30
41593;BMP180;28026;48.562;14.440;2023-06-14T14:15:32;93607.00;;;32.90
41593;BMP180;28026;48.562;14.440;2023-06-14T14:18:05;93603.00;;;32.70
41593;BMP180;28026;48.562;14.440;2023-06-14T14:20:36;93603.00;;;32.60
41593;BMP180;28026;48.562;14.440;2023-06-14T14:23:07;93607.00;;;32.40
41593;BMP180;28026;48.562;14.440;2023-06-14T14:25:38;93607.00;;;32.30
41593;BMP180;28026;48.562;14.440;2023-06-14T14:28:08;93606.00;;;32.20
41593;BMP180;28026;48.562;14.440;2023-06-14T14:30:39;93610.00;;;31.90
41593;BMP180;28026;48.562;14.440;2023-06-14T14:33:10;93605.00;;;31.70
41593;BMP180;28026;48.562;14.440;2023-06-14T14:35:46;93601.00;;;31.60
41593;BMP180;28026;48.562;14.440;2023-06-14T14:38:17;93609.00;;;31.30